Time;durP1;ratioP1;P1;durP2;ratioP2;P2;SDS_P1;SDS_P2;PMS_P1;PMS_P2;Temp;Humidity;BMP_temperature;BMP_pressure;BME280_temperature;BME280_humidity;BME280_pressure;Samples;Min_cycle;Max_cycle;Signal;HPM_P1;HPM_P2
2023/04/23 00:00:48;;;;;;;2.55;1.40;;;;;;;;;;5026938;28;20042;-67
2023/04/23 00:03:13;;;;;;;2.40;1.57;;;;;;;;;;5021545;28;20072;-69
2023/04/23 00:05:38;;;;;;;3.33;1.40;;;;;;;;;;5020056;28;20057;-61
2023/04/23 00:08:04;;;;;;;2.80;1.50;;;;;;;;;;5010852;28;20029;-62
2023/04/23 00:10:29;;;;;;;2.25;1.60;;;;;;;;;;5028918;28;20064;-68
2023/04/23 00:12:55;;;;;;;2.42;1.67;;;;;;;;;;5007303;28;20048;-67
2023/04/23 00:15:21;;;;;;;2.00;1.50;;;;;;;;;;5000758;28;20462;-68
2023/04/23 00:17:46;;;;;;;2.53;1.67;;;;;;;;;;5026976;28;20049;-68
2023/04/23 00:20:11;;;;;;;2.10;1.52;;;;;;;;;;4991086;28;20034;-65
2023/04/23 00:22:37;;;;;;;2.10;1.40;;;;;;;;;;4988465;28;20546;-66
2023/04/23 00:25:02;;;;;;;1.43;1.30;;;;;;;;;;5028393;28;20288;-67
2023/04/23 00:27:27;;;;;;;2.42;1.42;;;;;;;;;;5027567;28;20268;-68
2023/04/23 00:29:53;;;;;;;2.00;1.50;;;;;;;;;;5028689;28;20042;-68
2023/04/23 00:32:18;;;;;;;1.80;1.40;;;;;;;;;;5010808;28;20764;-68
2023/04/23 00:34:43;;;;;;;1.93;1.40;;;;;;;;;;5028304;28;20494;-69
2023/04/23 00:37:08;;;;;;;2.83;1.67;;;;;;;;;;5024469;28;20342;-62
2023/04/23 00:39:36;;;;;;;2.20;1.27;;;;;;;;;;5021714;28;20151;-64
2023/04/23 00:42:05;;;;;;;2.15;1.50;;;;;;;;;;5003889;28;20323;-66
2023/04/23 00:44:31;;;;;;;1.65;1.25;;;;;;;;;;5010637;28;20054;-63
2023/04/23 00:46:56;;;;;;;1.95;1.23;;;;;;;;;;5027403;28;20120;-67
2023/04/23 00:49:21;;;;;;;3.60;1.70;;;;;;;;;;5010269;28;20034;-63
2023/04/23 00:51:47;;;;;;;2.30;1.63;;;;;;;;;;5026493;28;20302;-68
2023/04/23 00:54:13;;;;;;;2.23;1.50;;;;;;;;;;5009341;28;20288;-69
2023/04/23 00:56:38;;;;;;;2.95;1.70;;;;;;;;;;5026836;28;20369;-62
2023/04/23 00:59:03;;;;;;;1.63;1.23;;;;;;;;;;5025089;28;20121;-69
2023/04/23 01:01:29;;;;;;;1.90;1.30;;;;;;;;;;5028314;28;20276;-68
2023/04/23 01:03:55;;;;;;;1.35;1.23;;;;;;;;;;5026167;28;20068;-68
2023/04/23 01:06:20;;;;;;;2.30;1.35;;;;;;;;;;5028304;28;20030;-66
2023/04/23 01:08:45;;;;;;;2.10;1.40;;;;;;;;;;5016660;28;20431;-68
2023/04/23 01:11:14;;;;;;;2.00;1.50;;;;;;;;;;5004673;28;20917;-61
2023/04/23 01:13:40;;;;;;;2.47;1.60;;;;;;;;;;5008016;28;20156;-66
2023/04/23 01:16:05;;;;;;;2.13;1.40;;;;;;;;;;5026226;28;20057;-67
2023/04/23 01:18:30;;;;;;;3.72;1.60;;;;;;;;;;5018217;28;20666;-64
2023/04/23 01:20:56;;;;;;;2.20;1.40;;;;;;;;;;5009628;28;20611;-65
2023/04/23 01:23:21;;;;;;;2.50;1.37;;;;;;;;;;5026908;28;20736;-58
2023/04/23 01:25:46;;;;;;;1.98;1.25;;;;;;;;;;5007244;28;20323;-66
2023/04/23 01:28:11;;;;;;;2.20;1.40;;;;;;;;;;5023099;28;20041;-67
2023/04/23 01:30:37;;;;;;;3.80;1.70;;;;;;;;;;5013554;28;20037;-66
2023/04/23 01:33:02;;;;;;;2.27;1.40;;;;;;;;;;5027478;28;20276;-66
2023/04/23 01:35:28;;;;;;;2.13;1.50;;;;;;;;;;5025997;28;20792;-68
2023/04/23 01:37:53;;;;;;;2.45;1.30;;;;;;;;;;5026305;28;20178;-69
2023/04/23 01:40:18;;;;;;;2.38;1.52;;;;;;;;;;5026304;28;20033;-63
2023/04/23 01:42:44;;;;;;;1.88;1.48;;;;;;;;;;5027469;28;20810;-67
2023/04/23 01:45:09;;;;;;;2.38;1.40;;;;;;;;;;5021638;28;20058;-68
2023/04/23 01:47:34;;;;;;;2.55;1.67;;;;;;;;;;5027619;28;20037;-68
2023/04/23 01:50:00;;;;;;;1.90;1.40;;;;;;;;;;5025145;28;20799;-67
2023/04/23 01:52:25;;;;;;;2.33;1.60;;;;;;;;;;5026914;28;20746;-64
2023/04/23 01:54:50;;;;;;;2.33;1.38;;;;;;;;;;5026937;28;20034;-65
2023/04/23 01:57:22;;;;;;;2.78;1.40;;;;;;;;;;5025412;28;20064;-60
2023/04/23 01:59:47;;;;;;;2.30;1.50;;;;;;;;;;5024110;28;20040;-64
2023/04/23 02:02:14;;;;;;;2.10;1.47;;;;;;;;;;5026713;28;20037;-63
2023/04/23 02:04:39;;;;;;;2.97;1.55;;;;;;;;;;5008557;28;20323;-65
2023/04/23 02:07:04;;;;;;;1.80;1.35;;;;;;;;;;5009062;28;20068;-68
2023/04/23 02:09:30;;;;;;;3.13;1.60;;;;;;;;;;5026170;28;20486;-62
2023/04/23 02:11:56;;;;;;;1.67;1.07;;;;;;;;;;5025100;28;20148;-64
2023/04/23 02:14:21;;;;;;;2.08;1.40;;;;;;;;;;5008736;28;20286;-67
2023/04/23 02:16:47;;;;;;;2.93;1.80;;;;;;;;;;5022998;28;20042;-64
2023/04/23 02:19:12;;;;;;;2.50;1.70;;;;;;;;;;5008759;28;20030;-67
2023/04/23 02:21:37;;;;;;;2.35;1.30;;;;;;;;;;5026688;28;20037;-63
2023/04/23 02:24:04;;;;;;;2.53;1.40;;;;;;;;;;4992490;28;20037;-64
2023/04/23 02:26:29;;;;;;;2.20;1.48;;;;;;;;;;5026698;28;20088;-65
2023/04/23 02:28:54;;;;;;;1.80;1.40;;;;;;;;;;5026090;28;20038;-70
2023/04/23 02:31:20;;;;;;;2.30;1.42;;;;;;;;;;5026765;28;20072;-60
2023/04/23 02:33:45;;;;;;;2.63;1.40;;;;;;;;;;5003975;28;20065;-65
2023/04/23 02:36:11;;;;;;;2.38;1.63;;;;;;;;;;5026743;28;20372;-67
2023/04/23 02:38:36;;;;;;;1.90;1.40;;;;;;;;;;5024115;28;20029;-65
2023/04/23 02:41:01;;;;;;;2.40;1.40;;;;;;;;;;5026262;28;20060;-64
2023/04/23 02:43:27;;;;;;;1.80;1.30;;;;;;;;;;5026720;28;20284;-60
2023/04/23 02:45:52;;;;;;;2.00;1.30;;;;;;;;;;5026252;28;20053;-68
2023/04/23 02:48:17;;;;;;;2.67;1.30;;;;;;;;;;5026168;28;20026;-70
2023/04/23 02:50:42;;;;;;;1.90;1.60;;;;;;;;;;5023390;28;20053;-70
2023/04/23 02:53:08;;;;;;;1.73;1.37;;;;;;;;;;5025889;28;20223;-65
2023/04/23 02:55:33;;;;;;;1.80;1.50;;;;;;;;;;5025842;28;20067;-64
2023/04/23 02:57:58;;;;;;;2.00;1.47;;;;;;;;;;5021191;28;20308;-68
2023/04/23 03:00:24;;;;;;;1.75;1.40;;;;;;;;;;5024539;28;20680;-68
2023/04/23 03:02:49;;;;;;;2.00;1.20;;;;;;;;;;5002135;28;20026;-69
2023/04/23 03:05:14;;;;;;;2.00;1.40;;;;;;;;;;5022969;28;20053;-69
2023/04/23 03:07:39;;;;;;;2.33;1.67;;;;;;;;;;5022298;28;20319;-70
2023/04/23 03:10:05;;;;;;;2.73;1.50;;;;;;;;;;5020620;28;20303;-60
2023/04/23 03:12:30;;;;;;;2.80;1.45;;;;;;;;;;5025520;28;20327;-65
2023/04/23 03:14:56;;;;;;;2.03;1.33;;;;;;;;;;5006541;28;20072;-66
2023/04/23 03:17:21;;;;;;;2.13;1.50;;;;;;;;;;5025270;28;20381;-66
2023/04/23 03:19:47;;;;;;;1.98;1.42;;;;;;;;;;5017162;28;20030;-69
2023/04/23 03:22:12;;;;;;;2.83;1.60;;;;;;;;;;5003092;28;20826;-69
2023/04/23 03:24:38;;;;;;;1.93;1.40;;;;;;;;;;5023495;28;20055;-63
2023/04/23 03:27:03;;;;;;;2.20;1.57;;;;;;;;;;5024457;28;20299;-67
2023/04/23 03:29:28;;;;;;;2.57;1.50;;;;;;;;;;5014095;28;20727;-68
2023/04/23 03:31:53;;;;;;;2.33;1.30;;;;;;;;;;5003946;28;20388;-69
2023/04/23 03:34:19;;;;;;;2.00;1.60;;;;;;;;;;5009301;28;20045;-66
2023/04/23 03:36:47;;;;;;;2.33;1.50;;;;;;;;;;5019771;28;20045;-70
2023/04/23 03:39:12;;;;;;;2.00;1.40;;;;;;;;;;5029037;28;20538;-68
2023/04/23 03:41:37;;;;;;;2.20;1.60;;;;;;;;;;5024323;28;20044;-68
2023/04/23 03:44:03;;;;;;;1.83;1.33;;;;;;;;;;5029636;28;20030;-65
2023/04/23 03:46:28;;;;;;;1.87;1.43;;;;;;;;;;5029125;28;20291;-66
2023/04/23 03:48:53;;;;;;;2.40;1.50;;;;;;;;;;5029734;28;20175;-65
2023/04/23 03:51:19;;;;;;;1.93;1.63;;;;;;;;;;4992997;28;20053;-68
2023/04/23 03:53:45;;;;;;;2.17;1.50;;;;;;;;;;5023998;28;20285;-68
2023/04/23 03:56:10;;;;;;;2.22;1.50;;;;;;;;;;5022237;28;20056;-64
2023/04/23 03:58:35;;;;;;;1.93;1.47;;;;;;;;;;5026754;28;20041;-66
2023/04/23 04:01:00;;;;;;;2.13;1.53;;;;;;;;;;4997697;28;20292;-69
2023/04/23 04:03:26;;;;;;;2.00;1.40;;;;;;;;;;5029342;28;20875;-61
2023/04/23 04:05:51;;;;;;;2.00;1.35;;;;;;;;;;5028941;28;20775;-61
2023/04/23 04:08:16;;;;;;;2.47;1.80;;;;;;;;;;5030129;28;20135;-65
2023/04/23 04:10:41;;;;;;;2.40;1.60;;;;;;;;;;5021253;28;20506;-68
2023/04/23 04:13:07;;;;;;;1.80;1.40;;;;;;;;;;5027609;28;20291;-64
2023/04/23 04:15:32;;;;;;;2.10;1.42;;;;;;;;;;5004972;28;20308;-66
2023/04/23 04:17:58;;;;;;;2.17;1.43;;;;;;;;;;5028901;28;20057;-68
2023/04/23 04:20:23;;;;;;;2.55;1.40;;;;;;;;;;5028877;28;20749;-65
2023/04/23 04:22:48;;;;;;;2.23;1.47;;;;;;;;;;5028902;28;20064;-67
2023/04/23 04:25:14;;;;;;;2.40;1.57;;;;;;;;;;5004564;28;21094;-62
2023/04/23 04:27:40;;;;;;;2.97;1.70;;;;;;;;;;5025287;28;20342;-68
2023/04/23 04:30:06;;;;;;;2.20;1.60;;;;;;;;;;5018890;28;20292;-64
2023/04/23 04:32:31;;;;;;;2.10;1.40;;;;;;;;;;5005673;28;20048;-62
2023/04/23 04:34:56;;;;;;;2.47;1.40;;;;;;;;;;5023047;28;20061;-66
2023/04/23 04:37:22;;;;;;;2.67;1.70;;;;;;;;;;5022301;28;20049;-67
2023/04/23 04:39:47;;;;;;;2.50;1.70;;;;;;;;;;5024818;28;20294;-66
2023/04/23 04:42:13;;;;;;;2.23;1.63;;;;;;;;;;5000120;28;20092;-68
2023/04/23 04:44:38;;;;;;;1.80;1.45;;;;;;;;;;5016188;28;20317;-62
2023/04/23 04:47:04;;;;;;;2.13;1.40;;;;;;;;;;5014514;28;20042;-65
2023/04/23 04:49:29;;;;;;;1.98;1.50;;;;;;;;;;5020705;28;20430;-68
2023/04/23 04:51:54;;;;;;;2.47;1.57;;;;;;;;;;5020675;28;20045;-66
2023/04/23 04:54:20;;;;;;;3.35;1.73;;;;;;;;;;5019151;28;20391;-67
2023/04/23 04:56:46;;;;;;;2.53;1.90;;;;;;;;;;5001904;28;20240;-69
2023/04/23 04:59:11;;;;;;;2.92;1.70;;;;;;;;;;5020934;28;20488;-63
2023/04/23 05:01:36;;;;;;;3.15;1.88;;;;;;;;;;5027091;28;20485;-66
2023/04/23 05:04:02;;;;;;;2.50;1.55;;;;;;;;;;5017009;28;20045;-59
2023/04/23 05:06:27;;;;;;;2.63;1.67;;;;;;;;;;5029999;28;20044;-67
2023/04/23 05:08:53;;;;;;;2.97;1.60;;;;;;;;;;5028193;28;20504;-64
2023/04/23 05:11:21;;;;;;;2.28;1.60;;;;;;;;;;5006857;28;20284;-64
2023/04/23 05:13:46;;;;;;;2.70;1.60;;;;;;;;;;5021022;28;20014;-64
2023/04/23 05:16:12;;;;;;;2.25;1.60;;;;;;;;;;5020221;28;20592;-57
2023/04/23 05:18:37;;;;;;;2.63;1.80;;;;;;;;;;5071909;23;20041;-72
2023/04/23 05:21:03;;;;;;;2.33;1.70;;;;;;;;;;5066198;28;20539;-63
2023/04/23 05:23:28;;;;;;;2.28;1.90;;;;;;;;;;5049623;28;20017;-71
2023/04/23 05:25:55;;;;;;;2.27;1.60;;;;;;;;;;5064595;28;20422;-66
2023/04/23 05:28:20;;;;;;;2.80;1.90;;;;;;;;;;5056273;28;20278;-65
2023/04/23 05:30:46;;;;;;;3.50;1.70;;;;;;;;;;5057941;28;20028;-70
2023/04/23 05:33:11;;;;;;;2.60;1.70;;;;;;;;;;5035294;28;20040;-68
2023/04/23 05:35:39;;;;;;;5.30;1.63;;;;;;;;;;5062629;28;20017;-67
2023/04/23 05:38:05;;;;;;;2.90;1.60;;;;;;;;;;5047719;22;20057;-65
2023/04/23 05:40:30;;;;;;;3.22;1.90;;;;;;;;;;5022622;28;20040;-61
2023/04/23 05:42:56;;;;;;;2.10;1.55;;;;;;;;;;5000567;28;20021;-67
2023/04/23 05:45:22;;;;;;;2.17;1.67;;;;;;;;;;4997413;28;20029;-67
2023/04/23 05:47:47;;;;;;;2.60;1.63;;;;;;;;;;5018828;28;20042;-61
2023/04/23 05:50:12;;;;;;;2.77;1.60;;;;;;;;;;5015335;28;20275;-67
2023/04/23 05:52:38;;;;;;;4.53;1.80;;;;;;;;;;5021967;28;20104;-67
2023/04/23 05:55:03;;;;;;;3.78;1.90;;;;;;;;;;5019706;28;20044;-61
2023/04/23 05:57:29;;;;;;;2.53;1.70;;;;;;;;;;5002932;28;20488;-64
2023/04/23 05:59:54;;;;;;;2.97;1.60;;;;;;;;;;5015117;28;20431;-61
2023/04/23 06:02:19;;;;;;;2.65;1.83;;;;;;;;;;5017431;28;20280;-63
2023/04/23 06:04:45;;;;;;;3.20;1.80;;;;;;;;;;5012745;28;20138;-58
2023/04/23 06:07:11;;;;;;;2.50;1.77;;;;;;;;;;5015247;28;20156;-63
2023/04/23 06:09:36;;;;;;;3.30;1.88;;;;;;;;;;5000693;28;20048;-63
2023/04/23 06:12:02;;;;;;;3.22;1.80;;;;;;;;;;5025199;28;20457;-64
2023/04/23 06:14:27;;;;;;;3.08;1.90;;;;;;;;;;5025463;28;20037;-65
2023/04/23 06:16:52;;;;;;;3.73;1.70;;;;;;;;;;5021275;28;20178;-64
2023/04/23 06:19:18;;;;;;;3.47;1.90;;;;;;;;;;5014740;28;20272;-62
2023/04/23 06:21:43;;;;;;;2.53;1.60;;;;;;;;;;5014714;28;20103;-60
2023/04/23 06:24:08;;;;;;;2.90;1.50;;;;;;;;;;5019488;28;20268;-63
2023/04/23 06:26:33;;;;;;;2.87;1.90;;;;;;;;;;5014264;28;20060;-66
2023/04/23 06:28:59;;;;;;;2.90;1.70;;;;;;;;;;5014546;28;20281;-62
2023/04/23 06:31:24;;;;;;;2.90;1.80;;;;;;;;;;5021653;28;20045;-60
2023/04/23 06:33:49;;;;;;;2.33;1.60;;;;;;;;;;5019373;28;20119;-63
2023/04/23 06:36:15;;;;;;;2.90;2.00;;;;;;;;;;5007200;28;20041;-65
2023/04/23 06:38:40;;;;;;;3.57;1.70;;;;;;;;;;5002279;28;20034;-61
2023/04/23 06:41:05;;;;;;;2.43;1.80;;;;;;;;;;4988406;28;20773;-62
2023/04/23 06:43:31;;;;;;;3.35;2.00;;;;;;;;;;5024292;28;20300;-63
2023/04/23 06:45:56;;;;;;;3.15;1.95;;;;;;;;;;5011926;28;20049;-64
2023/04/23 06:48:21;;;;;;;3.13;2.00;;;;;;;;;;5011326;28;20038;-66
2023/04/23 06:50:47;;;;;;;2.60;1.90;;;;;;;;;;5005933;28;20759;-62
2023/04/23 06:53:12;;;;;;;2.65;1.70;;;;;;;;;;5022519;28;20564;-60
2023/04/23 06:55:38;;;;;;;3.40;1.77;;;;;;;;;;5015957;28;20038;-63
2023/04/23 06:58:05;;;;;;;2.80;1.80;;;;;;;;;;5021711;28;20041;-64
2023/04/23 07:00:31;;;;;;;2.78;1.80;;;;;;;;;;5025110;28;20276;-60
2023/04/23 07:02:56;;;;;;;2.80;1.63;;;;;;;;;;5023563;28;20044;-61
2023/04/23 07:05:21;;;;;;;2.10;1.70;;;;;;;;;;5020985;28;20048;-64
2023/04/23 07:07:47;;;;;;;2.35;1.90;;;;;;;;;;5024349;28;20033;-64
2023/04/23 07:10:12;;;;;;;3.42;1.90;;;;;;;;;;5025194;28;20037;-62
2023/04/23 07:12:37;;;;;;;4.35;2.20;;;;;;;;;;5015045;28;20045;-64
2023/04/23 07:15:03;;;;;;;2.40;1.80;;;;;;;;;;5014455;28;20513;-65
2023/04/23 07:17:28;;;;;;;2.83;1.80;;;;;;;;;;5022605;28;20097;-65
2023/04/23 07:19:53;;;;;;;2.53;1.70;;;;;;;;;;5020728;28;20395;-63
2023/04/23 07:22:18;;;;;;;2.93;1.80;;;;;;;;;;5013845;28;20081;-65
2023/04/23 07:24:44;;;;;;;2.30;1.73;;;;;;;;;;5021279;28;20361;-66
2023/04/23 07:27:09;;;;;;;2.33;1.67;;;;;;;;;;5009906;28;20437;-62
2023/04/23 07:29:34;;;;;;;2.47;1.70;;;;;;;;;;5024376;28;20033;-65
2023/04/23 07:32:00;;;;;;;3.45;1.75;;;;;;;;;;5021750;28;20334;-64
2023/04/23 07:34:25;;;;;;;4.43;1.67;;;;;;;;;;4997207;28;20133;-59
2023/04/23 07:36:51;;;;;;;2.60;1.90;;;;;;;;;;4987983;28;20293;-64
2023/04/23 07:39:16;;;;;;;2.90;1.80;;;;;;;;;;5021786;28;20025;-61
2023/04/23 07:41:41;;;;;;;2.88;1.80;;;;;;;;;;5020221;28;20119;-62
2023/04/23 07:44:06;;;;;;;4.30;2.17;;;;;;;;;;5023720;28;20041;-62
2023/04/23 07:46:32;;;;;;;3.03;1.83;;;;;;;;;;5020346;28;20280;-65
2023/04/23 07:48:57;;;;;;;2.50;1.67;;;;;;;;;;5021016;28;20289;-66
2023/04/23 07:51:25;;;;;;;2.63;1.70;;;;;;;;;;4997524;28;20304;-64
2023/04/23 07:53:53;;;;;;;2.22;1.58;;;;;;;;;;5020328;28;20491;-61
2023/04/23 07:56:18;;;;;;;4.03;1.98;;;;;;;;;;4978926;28;20072;-61
2023/04/23 07:58:43;;;;;;;1.98;1.50;;;;;;;;;;5020247;28;20080;-65
2023/04/23 08:01:09;;;;;;;2.43;1.73;;;;;;;;;;5018109;28;20030;-65
2023/04/23 08:03:34;;;;;;;2.22;1.90;;;;;;;;;;5011015;28;20057;-61
2023/04/23 08:05:59;;;;;;;2.30;1.70;;;;;;;;;;5022555;28;20500;-64
2023/04/23 08:08:24;;;;;;;2.72;1.80;;;;;;;;;;5008871;28;20280;-65
2023/04/23 08:10:50;;;;;;;2.80;2.35;;;;;;;;;;5022721;28;20026;-65
2023/04/23 08:13:15;;;;;;;3.88;2.53;;;;;;;;;;4999233;28;20026;-62
2023/04/23 08:15:40;;;;;;;3.80;2.60;;;;;;;;;;5005451;28;20131;-62
2023/04/23 08:18:06;;;;;;;3.93;3.23;;;;;;;;;;5009019;28;20280;-67
2023/04/23 08:20:31;;;;;;;3.97;2.85;;;;;;;;;;5027920;28;20291;-61
2023/04/23 08:22:56;;;;;;;5.87;3.40;;;;;;;;;;5001268;28;20045;-63
2023/04/23 08:25:21;;;;;;;9.05;4.20;;;;;;;;;;4991434;28;20304;-63
2023/04/23 08:27:46;;;;;;;6.43;3.87;;;;;;;;;;5017884;28;20051;-66
2023/04/23 08:30:12;;;;;;;6.33;4.30;;;;;;;;;;5013654;28;20292;-62
2023/04/23 08:32:40;;;;;;;6.22;4.60;;;;;;;;;;5004888;28;20374;-61
2023/04/23 08:35:07;;;;;;;6.55;4.80;;;;;;;;;;5020201;28;20041;-64
2023/04/23 08:37:32;;;;;;;6.78;4.68;;;;;;;;;;5023903;28;20046;-68
2023/04/23 08:39:57;;;;;;;6.75;4.25;;;;;;;;;;5024397;28;20458;-62
2023/04/23 08:42:25;;;;;;;8.32;4.55;;;;;;;;;;5009797;28;20034;-63
2023/04/23 08:44:52;;;;;;;6.85;4.63;;;;;;;;;;4993762;28;20430;-62
2023/04/23 08:47:17;;;;;;;5.85;4.35;;;;;;;;;;4992706;28;20497;-62
2023/04/23 08:49:42;;;;;;;7.18;4.95;;;;;;;;;;5026743;28;20172;-65
2023/04/23 08:52:26;;;;;;;7.93;4.33;;;;;;;;;;5028038;28;20458;-65
2023/04/23 08:54:52;;;;;;;6.55;5.07;;;;;;;;;;5000489;28;20647;-60
2023/04/23 08:57:17;;;;;;;6.50;4.63;;;;;;;;;;5022851;28;20123;-63
2023/04/23 08:59:42;;;;;;;8.90;5.00;;;;;;;;;;5013085;28;20510;-61
2023/04/23 09:02:09;;;;;;;7.57;4.90;;;;;;;;;;5021344;28;20026;-65
2023/04/23 09:04:34;;;;;;;7.95;5.60;;;;;;;;;;5017364;28;20038;-63
2023/04/23 09:07:00;;;;;;;8.48;5.22;;;;;;;;;;5018150;28;20080;-64
2023/04/23 09:09:25;;;;;;;7.43;4.85;;;;;;;;;;5016574;28;20337;-60
2023/04/23 09:11:50;;;;;;;7.63;4.75;;;;;;;;;;4990283;28;20052;-63
2023/04/23 09:14:16;;;;;;;6.77;5.10;;;;;;;;;;5021286;28;20022;-62
2023/04/23 09:16:41;;;;;;;5.25;4.53;;;;;;;;;;5026560;28;20040;-59
2023/04/23 09:19:08;;;;;;;5.25;4.38;;;;;;;;;;5013650;28;20025;-62
2023/04/23 09:21:34;;;;;;;7.13;4.32;;;;;;;;;;5021067;28;20087;-62
2023/04/23 09:23:59;;;;;;;7.22;4.57;;;;;;;;;;5018202;28;20041;-62
2023/04/23 09:26:25;;;;;;;6.10;4.82;;;;;;;;;;4992009;28;20088;-65
2023/04/23 09:28:51;;;;;;;5.88;4.25;;;;;;;;;;5006676;28;20061;-64
2023/04/23 09:31:25;;;;;;;5.78;4.90;;;;;;;;;;5020154;28;20052;-61
2023/04/23 09:33:51;;;;;;;6.72;5.22;;;;;;;;;;5020084;28;20119;-63
2023/04/23 09:36:18;;;;;;;7.22;5.20;;;;;;;;;;5026217;28;20075;-62
2023/04/23 09:38:44;;;;;;;6.97;4.95;;;;;;;;;;5013295;28;20026;-63
2023/04/23 09:41:25;;;;;;;8.63;5.07;;;;;;;;;;5007630;28;20041;-59
2023/04/23 09:43:54;;;;;;;5.93;4.55;;;;;;;;;;4987106;28;20495;-60
2023/04/23 09:46:31;;;;;;;6.90;4.88;;;;;;;;;;5016407;28;20055;-61
2023/04/23 09:48:56;;;;;;;7.22;4.80;;;;;;;;;;5017075;28;20116;-59
2023/04/23 09:51:23;;;;;;;8.43;4.67;;;;;;;;;;5016305;28;20125;-59
2023/04/23 09:53:48;;;;;;;5.43;4.15;;;;;;;;;;5015483;28;20049;-63
2023/04/23 09:56:14;;;;;;;8.13;4.50;;;;;;;;;;5026558;28;20125;-62
2023/04/23 09:58:39;;;;;;;6.03;4.50;;;;;;;;;;5012717;28;20338;-58
2023/04/23 10:01:07;;;;;;;6.53;4.53;;;;;;;;;;4996429;28;20132;-63
2023/04/23 10:03:33;;;;;;;5.55;4.30;;;;;;;;;;5006143;28;20324;-63
2023/04/23 10:05:58;;;;;;;6.03;4.40;;;;;;;;;;5018384;28;20092;-61
2023/04/23 10:08:24;;;;;;;7.38;4.45;;;;;;;;;;5006481;28;20087;-63
2023/04/23 10:10:50;;;;;;;6.65;4.93;;;;;;;;;;5008924;28;20050;-64
2023/04/23 10:13:15;;;;;;;7.50;4.75;;;;;;;;;;4994510;28;20065;-60
2023/04/23 10:15:40;;;;;;;6.53;4.82;;;;;;;;;;5021168;28;20060;-60
2023/04/23 10:18:06;;;;;;;5.80;4.63;;;;;;;;;;5011863;28;20046;-61
2023/04/23 10:20:31;;;;;;;6.68;5.28;;;;;;;;;;4996002;28;20413;-57
2023/04/23 10:22:56;;;;;;;5.25;4.32;;;;;;;;;;5014460;28;20038;-62
2023/04/23 10:25:22;;;;;;;6.03;4.47;;;;;;;;;;5018655;28;20514;-62
2023/04/23 10:27:47;;;;;;;7.47;4.55;;;;;;;;;;5019542;28;20030;-62
2023/04/23 10:30:13;;;;;;;7.03;4.63;;;;;;;;;;5021236;28;20462;-63
2023/04/23 10:32:38;;;;;;;6.07;4.72;;;;;;;;;;5020222;28;20174;-61
2023/04/23 10:35:04;;;;;;;6.22;4.13;;;;;;;;;;5008216;28;20415;-61
2023/04/23 10:37:29;;;;;;;5.55;4.15;;;;;;;;;;5005548;28;20136;-62
2023/04/23 10:39:55;;;;;;;6.90;4.13;;;;;;;;;;4972155;28;20097;-63
2023/04/23 10:42:23;;;;;;;5.10;4.20;;;;;;;;;;4984591;28;20315;-61
2023/04/23 10:44:48;;;;;;;5.95;4.75;;;;;;;;;;5006682;28;20061;-61
2023/04/23 10:47:14;;;;;;;6.07;4.20;;;;;;;;;;5012384;28;20025;-62
2023/04/23 10:49:40;;;;;;;7.13;4.47;;;;;;;;;;5017047;28;20014;-62
2023/04/23 10:52:08;;;;;;;5.43;4.00;;;;;;;;;;5007593;28;20505;-60
2023/04/23 10:54:33;;;;;;;5.78;4.20;;;;;;;;;;5024464;28;20060;-59
2023/04/23 10:57:00;;;;;;;5.57;3.97;;;;;;;;;;5014412;28;20014;-60
2023/04/23 10:59:27;;;;;;;5.93;4.10;;;;;;;;;;5018248;28;20111;-61
2023/04/23 11:01:53;;;;;;;4.93;4.05;;;;;;;;;;5021431;28;20037;-61
2023/04/23 11:04:22;;;;;;;5.53;3.90;;;;;;;;;;4997789;28;20208;-62
2023/04/23 11:06:47;;;;;;;5.10;3.72;;;;;;;;;;5011803;28;20376;-63
2023/04/23 11:09:29;;;;;;;4.73;3.77;;;;;;;;;;5024008;28;20141;-62
2023/04/23 11:11:55;;;;;;;4.68;3.83;;;;;;;;;;5005254;28;20057;-62
2023/04/23 11:14:20;;;;;;;5.30;4.00;;;;;;;;;;4996776;28;20037;-67
2023/04/23 11:16:47;;;;;;;5.17;3.90;;;;;;;;;;4990800;28;20124;-58
2023/04/23 11:19:14;;;;;;;5.65;3.90;;;;;;;;;;5005545;28;20034;-61
2023/04/23 11:21:58;;;;;;;8.02;4.43;;;;;;;;;;5018591;28;20120;-60
2023/04/23 11:24:24;;;;;;;6.63;3.58;;;;;;;;;;5006492;28;20117;-60
2023/04/23 11:26:55;;;;;;;5.60;4.20;;;;;;;;;;5022439;28;20538;-60
2023/04/23 11:29:21;;;;;;;4.68;3.70;;;;;;;;;;5011584;28;20517;-62
2023/04/23 11:31:46;;;;;;;5.65;3.90;;;;;;;;;;4991715;28;20543;-64
2023/04/23 11:34:12;;;;;;;5.57;4.10;;;;;;;;;;5017828;28;20130;-64
2023/04/23 11:36:37;;;;;;;5.47;3.93;;;;;;;;;;5014207;28;20789;-65
2023/04/23 11:39:02;;;;;;;5.53;4.15;;;;;;;;;;5001378;28;20671;-61
2023/04/23 11:41:28;;;;;;;5.80;3.97;;;;;;;;;;5014281;28;20038;-63
2023/04/23 11:43:54;;;;;;;6.00;4.00;;;;;;;;;;5017029;28;20065;-64
2023/04/23 11:46:19;;;;;;;4.57;3.60;;;;;;;;;;5010221;28;20508;-65
2023/04/23 11:48:45;;;;;;;4.60;3.45;;;;;;;;;;5008722;28;20429;-60
2023/04/23 11:51:10;;;;;;;5.87;3.80;;;;;;;;;;5012271;28;20294;-65
2023/04/23 11:53:35;;;;;;;4.33;3.50;;;;;;;;;;4992351;28;20140;-63
2023/04/23 11:56:00;;;;;;;5.40;3.60;;;;;;;;;;5022675;28;20141;-60
2023/04/23 11:58:25;;;;;;;4.70;3.47;;;;;;;;;;5009918;28;20310;-62
2023/04/23 12:00:56;;;;;;;4.90;4.03;;;;;;;;;;4998646;28;20042;-63
2023/04/23 12:03:24;;;;;;;5.10;3.55;;;;;;;;;;5008316;28;20042;-63
2023/04/23 12:05:50;;;;;;;4.43;3.45;;;;;;;;;;4994774;28;20541;-61
2023/04/23 12:08:15;;;;;;;4.07;3.47;;;;;;;;;;5013956;28;20037;-61
2023/04/23 12:10:46;;;;;;;4.32;3.40;;;;;;;;;;5015516;28;20468;-63
2023/04/23 12:13:25;;;;;;;5.90;3.20;;;;;;;;;;5019804;28;20116;-63
2023/04/23 12:16:08;;;;;;;3.85;2.88;;;;;;;;;;5011337;28;20057;-62
2023/04/23 12:18:38;;;;;;;4.20;3.40;;;;;;;;;;4993440;28;20025;-64
2023/04/23 12:21:04;;;;;;;3.50;2.88;;;;;;;;;;5017028;28;20053;-65
2023/04/23 12:23:29;;;;;;;3.33;3.03;;;;;;;;;;5012639;28;20088;-61
2023/04/23 12:25:54;;;;;;;4.57;3.40;;;;;;;;;;5022109;28;20041;-63
2023/04/23 12:28:23;;;;;;;4.03;2.95;;;;;;;;;;5007545;28;20049;-62
2023/04/23 12:30:48;;;;;;;4.65;3.20;;;;;;;;;;4986137;28;20111;-63
2023/04/23 12:33:13;;;;;;;4.35;3.30;;;;;;;;;;5017272;28;20347;-58
2023/04/23 12:35:39;;;;;;;3.97;3.42;;;;;;;;;;5017978;28;20049;-62
2023/04/23 12:38:05;;;;;;;4.43;3.22;;;;;;;;;;5026959;28;20057;-69
2023/04/23 12:40:30;;;;;;;4.60;3.17;;;;;;;;;;5037861;28;20111;-66
2023/04/23 12:42:55;;;;;;;3.93;3.53;;;;;;;;;;5000968;28;20037;-64
2023/04/23 12:45:20;;;;;;;3.47;3.17;;;;;;;;;;5019765;28;20319;-65
2023/04/23 12:47:46;;;;;;;4.82;3.30;;;;;;;;;;5024978;28;20030;-69
2023/04/23 12:50:11;;;;;;;34.40;18.73;;;;;;;;;;5026034;28;20038;-68
2023/04/23 12:52:37;;;;;;;8.23;5.60;;;;;;;;;;5026091;28;20344;-65
2023/04/23 12:55:03;;;;;;;7.95;4.20;;;;;;;;;;5021220;28;20038;-64
2023/04/23 12:57:29;;;;;;;6.38;4.28;;;;;;;;;;5006217;28;20485;-69
2023/04/23 12:59:54;;;;;;;4.47;2.85;;;;;;;;;;5002704;28;20125;-70
2023/04/23 13:02:19;;;;;;;5.30;2.97;;;;;;;;;;4994952;28;20179;-70
2023/04/23 13:04:45;;;;;;;4.47;2.90;;;;;;;;;;5023788;28;20335;-73
2023/04/23 13:07:10;;;;;;;4.40;3.10;;;;;;;;;;5011239;28;20045;-68
2023/04/23 13:09:35;;;;;;;4.10;3.00;;;;;;;;;;5010583;28;20037;-62
2023/04/23 13:12:01;;;;;;;4.70;3.15;;;;;;;;;;5027194;28;20042;-65
2023/04/23 13:14:26;;;;;;;4.60;3.20;;;;;;;;;;5015086;28;20407;-65
2023/04/23 13:16:52;;;;;;;4.78;3.15;;;;;;;;;;5022831;28;20371;-70
2023/04/23 13:19:17;;;;;;;3.30;2.57;;;;;;;;;;4988074;28;20040;-69
2023/04/23 13:21:42;;;;;;;4.40;2.70;;;;;;;;;;5023762;28;20284;-61
2023/04/23 13:24:07;;;;;;;4.37;2.70;;;;;;;;;;5025319;28;20719;-68
2023/04/23 13:26:34;;;;;;;4.25;2.58;;;;;;;;;;5023723;28;20796;-68
2023/04/23 13:29:00;;;;;;;4.63;2.85;;;;;;;;;;5025280;28;20030;-68
2023/04/23 13:31:25;;;;;;;4.00;2.70;;;;;;;;;;5022040;28;20041;-71
2023/04/23 13:33:50;;;;;;;3.80;2.53;;;;;;;;;;5024729;28;20806;-62
2023/04/23 13:36:16;;;;;;;3.60;2.57;;;;;;;;;;5023710;28;20132;-69
2023/04/23 13:38:41;;;;;;;3.70;2.80;;;;;;;;;;5018700;28;20808;-72
2023/04/23 13:41:06;;;;;;;5.03;2.60;;;;;;;;;;5025713;28;20704;-65
2023/04/23 13:43:31;;;;;;;3.85;3.03;;;;;;;;;;5023751;28;20442;-68
2023/04/23 13:45:57;;;;;;;4.17;2.40;;;;;;;;;;5015460;28;20870;-68
2023/04/23 13:48:27;;;;;;;6.60;2.75;;;;;;;;;;5024320;28;20276;-70
2023/04/23 13:50:52;;;;;;;3.47;2.50;;;;;;;;;;5006071;28;20038;-63
2023/04/23 13:53:17;;;;;;;12.10;4.13;;;;;;;;;;5002412;28;20034;-68
2023/04/23 13:55:43;;;;;;;5.70;3.03;;;;;;;;;;5005796;28;20018;-69
2023/04/23 13:58:08;;;;;;;5.20;2.60;;;;;;;;;;5022320;28;20493;-70
2023/04/23 14:00:34;;;;;;;4.13;2.45;;;;;;;;;;5016098;28;20481;-70
2023/04/23 14:02:59;;;;;;;3.85;2.20;;;;;;;;;;5022206;28;20029;-70
2023/04/23 14:05:24;;;;;;;3.83;2.70;;;;;;;;;;4999318;28;20056;-72
2023/04/23 14:07:49;;;;;;;3.92;2.40;;;;;;;;;;5021943;28;20028;-64
2023/04/23 14:10:15;;;;;;;4.93;2.33;;;;;;;;;;4989857;28;20537;-69
2023/04/23 14:12:40;;;;;;;5.33;2.70;;;;;;;;;;5021141;28;20079;-70
2023/04/23 14:15:06;;;;;;;5.05;2.70;;;;;;;;;;5010882;28;20780;-64
2023/04/23 14:17:31;;;;;;;3.92;2.35;;;;;;;;;;5003856;28;20057;-67
2023/04/23 14:19:56;;;;;;;4.20;2.47;;;;;;;;;;5004492;28;20426;-64
2023/04/23 14:22:22;;;;;;;5.07;2.75;;;;;;;;;;5021280;28;20298;-69
2023/04/23 14:24:50;;;;;;;6.18;2.47;;;;;;;;;;5019941;28;20037;-71
2023/04/23 14:27:16;;;;;;;4.93;2.67;;;;;;;;;;5020236;28;20040;-66
2023/04/23 14:29:45;;;;;;;3.92;2.30;;;;;;;;;;5015036;28;20401;-68
2023/04/23 14:32:11;;;;;;;3.65;2.45;;;;;;;;;;5016871;28;20460;-65
2023/04/23 14:34:36;;;;;;;3.90;2.30;;;;;;;;;;5020182;28;20029;-68